Huvudsida
METAR-TAF:

METAR-TAF

Flygplatser :

Skövde, Sverige

latitud: 58-27N, longitud: 013-58E, höjd: 98 m

Aktuellt väderrapport

Denna rapport gjordes för 26 minuter sedan, klockan 00:20 UTC
Vind 6 kt från ost/sydost
Temperatur 8°C
Fuktighet 100%
Tryck 1007 hPa
Sikt: 7000 m
duggregn

METAR: ESGR 190020Z AUTO 12006KT 7000 DZ OVC008/// 08/08 Q1007

Tid: 01:46 (00:46 UTC)


TAF: saknas

Aktuella väderrapporter och prognoser från 4000 flygplatser (METAR- och TAF-rapporter).

De tillgängliga stationerna syns som gula och röda prickar på kartan.

För musen över prickarna för att se namnen på stationerna.

Klicka sedan för att få väderrapporter och prognoser.

För att ändra kartan: Klicka på de gröna knapparna med ett svart kors på för att zooma in; den gröna knappen med ett streck på för att zooma ut; eller på de gröna pilarna för angränsande kartor.


METAR-TAF: